sensor_id;sensor_type;location;lat;lon;timestamp;temperature;humidity
17968;DHT22;9109;48.050;11.696;2023-04-24T03:46:29;10.70;99.90
17968;DHT22;9109;48.050;11.696;2023-04-24T03:49:31;10.70;99.90
17968;DHT22;9109;48.050;11.696;2023-04-24T03:52:33;10.70;99.90
17968;DHT22;9109;48.050;11.696;2023-04-24T03:55:35;10.70;99.90
17968;DHT22;9109;48.050;11.696;2023-04-24T03:58:37;10.70;99.90
17968;DHT22;9109;48.050;11.696;2023-04-24T04:01:40;10.70;99.90
17968;DHT22;9109;48.050;11.696;2023-04-24T04:04:42;10.70;99.90
17968;DHT22;9109;48.050;11.696;2023-04-24T04:07:44;10.70;99.90
17968;DHT22;9109;48.050;11.696;2023-04-24T04:10:46;10.60;99.90
17968;DHT22;9109;48.050;11.696;2023-04-24T04:13:48;10.60;99.90
17968;DHT22;9109;48.050;11.696;2023-04-24T04:17:00;10.70;99.90
17968;DHT22;9109;48.050;11.696;2023-04-24T04:20:15;10.80;99.90
17968;DHT22;9109;48.050;11.696;2023-04-24T04:23:17;10.80;99.90
17968;DHT22;9109;48.050;11.696;2023-04-24T04:26:19;10.70;99.90
17968;DHT22;9109;48.050;11.696;2023-04-24T04:29:26;10.60;99.90
17968;DHT22;9109;48.050;11.696;2023-04-24T04:32:29;10.60;99.90
17968;DHT22;9109;48.050;11.696;2023-04-24T04:35:31;10.70;99.90
17968;DHT22;9109;48.050;11.696;2023-04-24T04:38:33;10.70;99.90
17968;DHT22;9109;48.050;11.696;2023-04-24T04:41:35;10.70;99.90
17968;DHT22;9109;48.050;11.696;2023-04-24T04:44:38;10.70;99.90
17968;DHT22;9109;48.050;11.696;2023-04-24T04:47:41;10.70;99.90
17968;DHT22;9109;48.050;11.696;2023-04-24T04:50:43;10.80;99.90
17968;DHT22;9109;48.050;11.696;2023-04-24T04:54:31;10.70;99.90
17968;DHT22;9109;48.050;11.696;2023-04-24T04:57:36;10.70;99.90
17968;DHT22;9109;48.050;11.696;2023-04-24T05:00:38;10.70;99.90
17968;DHT22;9109;48.050;11.696;2023-04-24T05:03:41;10.70;99.90
17968;DHT22;9109;48.050;11.696;2023-04-24T05:06:43;10.60;99.90
17968;DHT22;9109;48.050;11.696;2023-04-24T05:09:47;10.60;99.90
17968;DHT22;9109;48.050;11.696;2023-04-24T05:12:52;10.60;99.90
17968;DHT22;9109;48.050;11.696;2023-04-24T05:15:54;10.60;99.90
17968;DHT22;9109;48.050;11.696;2023-04-24T05:18:57;10.60;99.90
17968;DHT22;9109;48.050;11.696;2023-04-24T05:21:59;10.60;99.90
17968;DHT22;9109;48.050;11.696;2023-04-24T05:25:04;10.60;99.90
17968;DHT22;9109;48.050;11.696;2023-04-24T05:28:06;10.50;99.90
17968;DHT22;9109;48.050;11.696;2023-04-24T05:31:08;10.40;99.90
17968;DHT22;9109;48.050;11.696;2023-04-24T05:34:11;10.20;99.90
17968;DHT22;9109;48.050;11.696;2023-04-24T05:37:13;10.10;99.90
17968;DHT22;9109;48.050;11.696;2023-04-24T05:40:15;10.10;99.90
17968;DHT22;9109;48.050;11.696;2023-04-24T05:43:17;10.20;99.90
17968;DHT22;9109;48.050;11.696;2023-04-24T05:46:22;10.20;99.90
17968;DHT22;9109;48.050;11.696;2023-04-24T05:49:25;10.30;99.90
17968;DHT22;9109;48.050;11.696;2023-04-24T05:52:27;10.30;99.90
17968;DHT22;9109;48.050;11.696;2023-04-24T05:55:31;10.30;99.90
17968;DHT22;9109;48.050;11.696;2023-04-24T05:58:33;10.30;99.90
17968;DHT22;9109;48.050;11.696;2023-04-24T06:01:35;10.20;99.90
17968;DHT22;9109;48.050;11.696;2023-04-24T06:04:38;10.10;99.90
17968;DHT22;9109;48.050;11.696;2023-04-24T06:07:52;10.10;99.90
17968;DHT22;9109;48.050;11.696;2023-04-24T06:10:54;10.20;99.90
17968;DHT22;9109;48.050;11.696;2023-04-24T06:13:56;10.30;99.90
17968;DHT22;9109;48.050;11.696;2023-04-24T06:16:58;10.30;99.90
17968;DHT22;9109;48.050;11.696;2023-04-24T06:20:01;10.30;99.90
17968;DHT22;9109;48.050;11.696;2023-04-24T06:23:06;10.40;99.90
17968;DHT22;9109;48.050;11.696;2023-04-24T06:26:08;10.40;99.90
17968;DHT22;9109;48.050;11.696;2023-04-24T06:29:10;10.50;99.90
17968;DHT22;9109;48.050;11.696;2023-04-24T06:32:11;10.60;99.90
17968;DHT22;9109;48.050;11.696;2023-04-24T06:35:15;10.70;99.90
17968;DHT22;9109;48.050;11.696;2023-04-24T06:38:17;10.70;99.90
17968;DHT22;9109;48.050;11.696;2023-04-24T06:41:19;10.70;99.90
17968;DHT22;9109;48.050;11.696;2023-04-24T06:44:21;10.70;99.90
17968;DHT22;9109;48.050;11.696;2023-04-24T06:47:22;10.70;99.90
17968;DHT22;9109;48.050;11.696;2023-04-24T06:50:26;10.70;99.90
17968;DHT22;9109;48.050;11.696;2023-04-24T06:53:28;10.80;99.90
17968;DHT22;9109;48.050;11.696;2023-04-24T06:56:30;10.80;99.90
17968;DHT22;9109;48.050;11.696;2023-04-24T06:59:32;10.90;99.90
17968;DHT22;9109;48.050;11.696;2023-04-24T07:02:34;11.00;99.90
17968;DHT22;9109;48.050;11.696;2023-04-24T07:05:37;11.10;99.90
17968;DHT22;9109;48.050;11.696;2023-04-24T07:08:39;11.10;99.90
17968;DHT22;9109;48.050;11.696;2023-04-24T07:11:42;11.10;99.90
17968;DHT22;9109;48.050;11.696;2023-04-24T07:14:45;11.30;99.90
17968;DHT22;9109;48.050;11.696;2023-04-24T07:17:47;11.30;99.90
17968;DHT22;9109;48.050;11.696;2023-04-24T07:20:50;11.30;99.90
17968;DHT22;9109;48.050;11.696;2023-04-24T07:23:52;11.40;99.90
17968;DHT22;9109;48.050;11.696;2023-04-24T07:26:54;11.50;99.90
17968;DHT22;9109;48.050;11.696;2023-04-24T07:29:57;11.50;99.90
17968;DHT22;9109;48.050;11.696;2023-04-24T07:32:59;11.50;99.90
17968;DHT22;9109;48.050;11.696;2023-04-24T07:36:03;11.60;99.90
17968;DHT22;9109;48.050;11.696;2023-04-24T07:39:05;11.50;99.90
17968;DHT22;9109;48.050;11.696;2023-04-24T07:42:07;11.50;99.90
17968;DHT22;9109;48.050;11.696;2023-04-24T07:45:09;11.50;99.90
17968;DHT22;9109;48.050;11.696;2023-04-24T07:48:12;11.50;99.90
17968;DHT22;9109;48.050;11.696;2023-04-24T07:51:16;11.60;99.90
17968;DHT22;9109;48.050;11.696;2023-04-24T07:54:18;11.50;99.90
17968;DHT22;9109;48.050;11.696;2023-04-24T07:57:20;11.50;99.90
17968;DHT22;9109;48.050;11.696;2023-04-24T08:00:22;11.40;99.90
17968;DHT22;9109;48.050;11.696;2023-04-24T08:03:24;11.30;99.90
17968;DHT22;9109;48.050;11.696;2023-04-24T08:06:27;11.30;99.90
17968;DHT22;9109;48.050;11.696;2023-04-24T08:09:32;11.30;99.90
17968;DHT22;9109;48.050;11.696;2023-04-24T08:12:34;11.30;99.90
17968;DHT22;9109;48.050;11.696;2023-04-24T08:15:36;11.20;99.90
17968;DHT22;9109;48.050;11.696;2023-04-24T08:18:38;11.20;99.90
17968;DHT22;9109;48.050;11.696;2023-04-24T08:21:41;11.20;99.90
17968;DHT22;9109;48.050;11.696;2023-04-24T08:24:43;11.20;99.90
17968;DHT22;9109;48.050;11.696;2023-04-24T08:27:45;11.30;99.90
17968;DHT22;9109;48.050;11.696;2023-04-24T08:30:47;11.30;99.90
17968;DHT22;9109;48.050;11.696;2023-04-24T08:33:49;11.30;99.90
17968;DHT22;9109;48.050;11.696;2023-04-24T08:36:52;11.30;99.90
17968;DHT22;9109;48.050;11.696;2023-04-24T08:39:54;11.30;99.90
17968;DHT22;9109;48.050;11.696;2023-04-24T08:42:56;11.30;99.90
17968;DHT22;9109;48.050;11.696;2023-04-24T08:45:59;11.20;99.90
17968;DHT22;9109;48.050;11.696;2023-04-24T08:49:01;11.30;99.90
17968;DHT22;9109;48.050;11.696;2023-04-24T08:52:05;11.30;99.90
17968;DHT22;9109;48.050;11.696;2023-04-24T08:55:08;11.10;99.90
17968;DHT22;9109;48.050;11.696;2023-04-24T08:58:10;11.10;99.90
17968;DHT22;9109;48.050;11.696;2023-04-24T09:01:12;11.20;99.90
17968;DHT22;9109;48.050;11.696;2023-04-24T09:04:15;11.20;99.90
17968;DHT22;9109;48.050;11.696;2023-04-24T09:07:20;11.20;99.90
17968;DHT22;9109;48.050;11.696;2023-04-24T09:10:24;11.40;99.90
17968;DHT22;9109;48.050;11.696;2023-04-24T09:13:26;11.20;99.90
17968;DHT22;9109;48.050;11.696;2023-04-24T09:16:28;11.10;99.90
17968;DHT22;9109;48.050;11.696;2023-04-24T09:19:30;11.10;99.90
17968;DHT22;9109;48.050;11.696;2023-04-24T09:22:34;11.30;99.90
17968;DHT22;9109;48.050;11.696;2023-04-24T09:25:36;11.30;99.90
17968;DHT22;9109;48.050;11.696;2023-04-24T09:28:39;11.30;99.90
17968;DHT22;9109;48.050;11.696;2023-04-24T09:31:41;11.30;99.90
17968;DHT22;9109;48.050;11.696;2023-04-24T09:34:43;11.20;99.90
17968;DHT22;9109;48.050;11.696;2023-04-24T09:37:50;11.20;99.90
17968;DHT22;9109;48.050;11.696;2023-04-24T09:40:52;11.30;99.90
17968;DHT22;9109;48.050;11.696;2023-04-24T09:43:55;11.60;99.90
17968;DHT22;9109;48.050;11.696;2023-04-24T09:46:58;11.80;99.90
17968;DHT22;9109;48.050;11.696;2023-04-24T09:50:09;12.00;99.90
17968;DHT22;9109;48.050;11.696;2023-04-24T09:53:12;12.30;99.90
17968;DHT22;9109;48.050;11.696;2023-04-24T09:56:14;12.50;99.90
17968;DHT22;9109;48.050;11.696;2023-04-24T09:59:17;12.50;99.90
17968;DHT22;9109;48.050;11.696;2023-04-24T10:02:20;12.50;99.90
17968;DHT22;9109;48.050;11.696;2023-04-24T10:05:27;12.50;99.90
17968;DHT22;9109;48.050;11.696;2023-04-24T10:08:35;12.60;99.90
17968;DHT22;9109;48.050;11.696;2023-04-24T10:11:41;12.70;99.90
17968;DHT22;9109;48.050;11.696;2023-04-24T10:14:45;12.90;99.90
17968;DHT22;9109;48.050;11.696;2023-04-24T10:17:48;12.90;99.90
17968;DHT22;9109;48.050;11.696;2023-04-24T10:20:53;12.90;99.90
17968;DHT22;9109;48.050;11.696;2023-04-24T10:23:58;12.90;99.90
17968;DHT22;9109;48.050;11.696;2023-04-24T10:27:01;12.90;99.90
17968;DHT22;9109;48.050;11.696;2023-04-24T10:30:04;13.00;99.90
17968;DHT22;9109;48.050;11.696;2023-04-24T10:33:08;13.00;99.90
17968;DHT22;9109;48.050;11.696;2023-04-24T10:36:10;13.10;99.90
17968;DHT22;9109;48.050;11.696;2023-04-24T10:39:15;13.30;99.90
17968;DHT22;9109;48.050;11.696;2023-04-24T10:42:18;13.40;99.90
17968;DHT22;9109;48.050;11.696;2023-04-24T10:45:21;13.40;99.90
17968;DHT22;9109;48.050;11.696;2023-04-24T10:48:26;13.50;99.90
17968;DHT22;9109;48.050;11.696;2023-04-24T10:51:45;13.60;99.90
17968;DHT22;9109;48.050;11.696;2023-04-24T10:54:48;13.50;99.90
17968;DHT22;9109;48.050;11.696;2023-04-24T10:58:05;13.20;99.70
17968;DHT22;9109;48.050;11.696;2023-04-24T11:01:07;13.10;99.90
17968;DHT22;9109;48.050;11.696;2023-04-24T11:04:10;13.00;99.90
17968;DHT22;9109;48.050;11.696;2023-04-24T11:07:12;12.60;99.90
17968;DHT22;9109;48.050;11.696;2023-04-24T11:10:26;11.80;99.90
17968;DHT22;9109;48.050;11.696;2023-04-24T11:14:01;11.50;99.90
17968;DHT22;9109;48.050;11.696;2023-04-24T11:17:03;11.50;99.90
17968;DHT22;9109;48.050;11.696;2023-04-24T11:20:07;11.50;99.90
17968;DHT22;9109;48.050;11.696;2023-04-24T11:23:12;11.50;99.90
17968;DHT22;9109;48.050;11.696;2023-04-24T11:26:21;11.70;99.90
17968;DHT22;9109;48.050;11.696;2023-04-24T11:29:42;12.10;99.90
17968;DHT22;9109;48.050;11.696;2023-04-24T11:32:48;12.30;99.90
17968;DHT22;9109;48.050;11.696;2023-04-24T11:35:51;12.40;99.90
17968;DHT22;9109;48.050;11.696;2023-04-24T11:38:53;12.40;99.90
17968;DHT22;9109;48.050;11.696;2023-04-24T11:42:03;12.50;99.90
17968;DHT22;9109;48.050;11.696;2023-04-24T11:45:08;12.50;99.90
17968;DHT22;9109;48.050;11.696;2023-04-24T11:48:11;12.70;99.90
17968;DHT22;9109;48.050;11.696;2023-04-24T11:51:13;12.70;99.90
17968;DHT22;9109;48.050;11.696;2023-04-24T11:54:14;12.90;99.90
17968;DHT22;9109;48.050;11.696;2023-04-24T11:57:19;13.20;99.90
17968;DHT22;9109;48.050;11.696;2023-04-24T12:00:22;13.50;99.90
17968;DHT22;9109;48.050;11.696;2023-04-24T12:03:24;13.70;99.90
17968;DHT22;9109;48.050;11.696;2023-04-24T12:06:26;13.70;99.90
17968;DHT22;9109;48.050;11.696;2023-04-24T12:09:28;13.60;99.90
17968;DHT22;9109;48.050;11.696;2023-04-24T12:12:31;13.60;99.90
17968;DHT22;9109;48.050;11.696;2023-04-24T12:15:33;13.60;99.90
17968;DHT22;9109;48.050;11.696;2023-04-24T12:18:40;13.50;99.70
17968;DHT22;9109;48.050;11.696;2023-04-24T12:21:42;13.00;99.90
17968;DHT22;9109;48.050;11.696;2023-04-24T12:25:01;12.20;99.90
17968;DHT22;9109;48.050;11.696;2023-04-24T12:28:11;11.60;99.90
17968;DHT22;9109;48.050;11.696;2023-04-24T12:31:14;11.30;99.90
17968;DHT22;9109;48.050;11.696;2023-04-24T12:34:19;11.10;99.90
17968;DHT22;9109;48.050;11.696;2023-04-24T12:37:23;11.00;99.90
17968;DHT22;9109;48.050;11.696;2023-04-24T12:40:26;11.20;99.90
17968;DHT22;9109;48.050;11.696;2023-04-24T12:43:31;11.20;99.90
17968;DHT22;9109;48.050;11.696;2023-04-24T12:46:33;11.30;99.90
17968;DHT22;9109;48.050;11.696;2023-04-24T12:49:37;11.50;99.90
17968;DHT22;9109;48.050;11.696;2023-04-24T12:52:40;11.70;99.90
17968;DHT22;9109;48.050;11.696;2023-04-24T12:55:42;11.60;99.90
17968;DHT22;9109;48.050;11.696;2023-04-24T12:58:46;11.50;99.90
17968;DHT22;9109;48.050;11.696;2023-04-24T13:01:48;11.20;99.90
17968;DHT22;9109;48.050;11.696;2023-04-24T13:04:50;10.70;99.90
17968;DHT22;9109;48.050;11.696;2023-04-24T13:07:52;10.70;99.90
17968;DHT22;9109;48.050;11.696;2023-04-24T13:10:54;10.70;99.90
17968;DHT22;9109;48.050;11.696;2023-04-24T13:13:58;10.70;99.90
17968;DHT22;9109;48.050;11.696;2023-04-24T13:17:00;10.70;99.90
17968;DHT22;9109;48.050;11.696;2023-04-24T13:20:02;10.80;99.90
17968;DHT22;9109;48.050;11.696;2023-04-24T13:23:04;11.00;99.90
17968;DHT22;9109;48.050;11.696;2023-04-24T13:26:06;11.10;99.90
17968;DHT22;9109;48.050;11.696;2023-04-24T13:29:09;11.40;99.90
17968;DHT22;9109;48.050;11.696;2023-04-24T13:32:11;11.60;99.90
17968;DHT22;9109;48.050;11.696;2023-04-24T13:35:13;11.80;99.90
17968;DHT22;9109;48.050;11.696;2023-04-24T13:38:15;12.10;99.90
17968;DHT22;9109;48.050;11.696;2023-04-24T13:41:17;12.30;99.90
17968;DHT22;9109;48.050;11.696;2023-04-24T13:44:21;12.50;99.90
17968;DHT22;9109;48.050;11.696;2023-04-24T13:47:23;12.60;99.90
17968;DHT22;9109;48.050;11.696;2023-04-24T13:50:25;12.60;99.90
17968;DHT22;9109;48.050;11.696;2023-04-24T13:53:27;12.40;99.90
17968;DHT22;9109;48.050;11.696;2023-04-24T13:56:29;12.10;99.90
17968;DHT22;9109;48.050;11.696;2023-04-24T13:59:32;11.80;99.90
17968;DHT22;9109;48.050;11.696;2023-04-24T14:02:34;11.60;99.90
17968;DHT22;9109;48.050;11.696;2023-04-24T14:05:36;11.50;99.90
17968;DHT22;9109;48.050;11.696;2023-04-24T14:08:38;11.50;99.90
17968;DHT22;9109;48.050;11.696;2023-04-24T14:11:40;11.60;99.90
17968;DHT22;9109;48.050;11.696;2023-04-24T14:14:44;11.70;99.90
17968;DHT22;9109;48.050;11.696;2023-04-24T14:17:45;12.00;99.90
17968;DHT22;9109;48.050;11.696;2023-04-24T14:20:47;12.20;99.90
17968;DHT22;9109;48.050;11.696;2023-04-24T14:23:49;12.40;99.90
17968;DHT22;9109;48.050;11.696;2023-04-24T14:26:51;12.50;99.90
17968;DHT22;9109;48.050;11.696;2023-04-24T14:29:54;12.60;99.90
17968;DHT22;9109;48.050;11.696;2023-04-24T14:32:56;12.70;99.90
17968;DHT22;9109;48.050;11.696;2023-04-24T14:35:58;12.90;99.90
17968;DHT22;9109;48.050;11.696;2023-04-24T14:39:00;12.90;99.90
17968;DHT22;9109;48.050;11.696;2023-04-24T14:42:06;12.60;99.90
17968;DHT22;9109;48.050;11.696;2023-04-24T14:45:10;12.40;99.90
17968;DHT22;9109;48.050;11.696;2023-04-24T14:48:12;12.30;99.90
17968;DHT22;9109;48.050;11.696;2023-04-24T14:51:14;12.40;99.90
17968;DHT22;9109;48.050;11.696;2023-04-24T14:54:16;12.50;99.90
17968;DHT22;9109;48.050;11.696;2023-04-24T14:57:17;12.40;99.90
17968;DHT22;9109;48.050;11.696;2023-04-24T15:00:22;12.40;99.90
17968;DHT22;9109;48.050;11.696;2023-04-24T15:03:24;12.40;99.90
17968;DHT22;9109;48.050;11.696;2023-04-24T15:06:27;12.40;98.90
17968;DHT22;9109;48.050;11.696;2023-04-24T15:09:31;12.40;95.30
17968;DHT22;9109;48.050;11.696;2023-04-24T15:12:33;12.30;96.20
17968;DHT22;9109;48.050;11.696;2023-04-24T15:15:36;12.30;95.20
17968;DHT22;9109;48.050;11.696;2023-04-24T15:18:38;12.40;94.80
17968;DHT22;9109;48.050;11.696;2023-04-24T15:21:40;12.50;93.90
17968;DHT22;9109;48.050;11.696;2023-04-24T15:24:43;12.50;91.80
17968;DHT22;9109;48.050;11.696;2023-04-24T15:27:45;12.50;92.70
17968;DHT22;9109;48.050;11.696;2023-04-24T15:30:49;12.60;93.80
17968;DHT22;9109;48.050;11.696;2023-04-24T15:33:51;12.70;94.00
17968;DHT22;9109;48.050;11.696;2023-04-24T15:36:52;12.80;93.30
17968;DHT22;9109;48.050;11.696;2023-04-24T15:39:54;12.70;93.10
17968;DHT22;9109;48.050;11.696;2023-04-24T15:42:56;12.60;93.40
17968;DHT22;9109;48.050;11.696;2023-04-24T15:46:00;12.50;93.60
17968;DHT22;9109;48.050;11.696;2023-04-24T15:49:02;12.50;91.50
17968;DHT22;9109;48.050;11.696;2023-04-24T15:52:03;12.50;92.30
17968;DHT22;9109;48.050;11.696;2023-04-24T15:55:06;12.60;91.40
17968;DHT22;9109;48.050;11.696;2023-04-24T15:58:08;12.80;90.80
17968;DHT22;9109;48.050;11.696;2023-04-24T16:01:11;12.90;91.00
17968;DHT22;9109;48.050;11.696;2023-04-24T16:04:14;12.90;89.70
17968;DHT22;9109;48.050;11.696;2023-04-24T16:07:16;12.80;90.90
17968;DHT22;9109;48.050;11.696;2023-04-24T16:10:19;12.80;89.60
17968;DHT22;9109;48.050;11.696;2023-04-24T16:13:21;12.80;90.10
17968;DHT22;9109;48.050;11.696;2023-04-24T16:16:24;12.50;87.00
17968;DHT22;9109;48.050;11.696;2023-04-24T16:19:26;12.40;88.30
17968;DHT22;9109;48.050;11.696;2023-04-24T16:22:28;12.50;86.30
17968;DHT22;9109;48.050;11.696;2023-04-24T16:25:30;12.60;87.60
17968;DHT22;9109;48.050;11.696;2023-04-24T16:28:31;12.60;87.50
17968;DHT22;9109;48.050;11.696;2023-04-24T16:31:35;12.70;86.70
17968;DHT22;9109;48.050;11.696;2023-04-24T16:34:37;12.70;86.50
17968;DHT22;9109;48.050;11.696;2023-04-24T16:37:38;12.80;87.80
17968;DHT22;9109;48.050;11.696;2023-04-24T16:40:41;12.80;85.00
17968;DHT22;9109;48.050;11.696;2023-04-24T16:43:43;12.60;85.30
17968;DHT22;9109;48.050;11.696;2023-04-24T16:46:46;12.40;81.80
17968;DHT22;9109;48.050;11.696;2023-04-24T16:49:48;12.30;83.00
17968;DHT22;9109;48.050;11.696;2023-04-24T16:52:50;12.20;81.10
17968;DHT22;9109;48.050;11.696;2023-04-24T16:55:52;12.10;80.80
17968;DHT22;9109;48.050;11.696;2023-04-24T16:58:53;12.00;81.50
17968;DHT22;9109;48.050;11.696;2023-04-24T17:01:57;11.90;81.10
17968;DHT22;9109;48.050;11.696;2023-04-24T17:04:59;11.90;82.70
17968;DHT22;9109;48.050;11.696;2023-04-24T17:08:00;11.90;82.20
17968;DHT22;9109;48.050;11.696;2023-04-24T17:11:03;11.90;81.30
17968;DHT22;9109;48.050;11.696;2023-04-24T17:14:04;11.90;80.70
17968;DHT22;9109;48.050;11.696;2023-04-24T17:17:08;12.00;81.90
17968;DHT22;9109;48.050;11.696;2023-04-24T17:20:10;12.10;83.40
17968;DHT22;9109;48.050;11.696;2023-04-24T17:23:12;12.00;82.60
17968;DHT22;9109;48.050;11.696;2023-04-24T17:26:14;11.90;83.50
17968;DHT22;9109;48.050;11.696;2023-04-24T17:29:16;11.90;83.60
17968;DHT22;9109;48.050;11.696;2023-04-24T17:32:20;11.80;84.10
17968;DHT22;9109;48.050;11.696;2023-04-24T17:35:21;11.70;83.80
17968;DHT22;9109;48.050;11.696;2023-04-24T17:38:24;11.70;83.60
17968;DHT22;9109;48.050;11.696;2023-04-24T17:41:26;11.70;83.80
17968;DHT22;9109;48.050;11.696;2023-04-24T17:44:28;11.70;83.10
17968;DHT22;9109;48.050;11.696;2023-04-24T17:47:31;11.60;83.80
17968;DHT22;9109;48.050;11.696;2023-04-24T17:50:33;11.50;82.40
17968;DHT22;9109;48.050;11.696;2023-04-24T17:53:35;11.40;82.80
17968;DHT22;9109;48.050;11.696;2023-04-24T17:56:37;11.30;82.30
17968;DHT22;9109;48.050;11.696;2023-04-24T17:59:39;11.20;83.60
17968;DHT22;9109;48.050;11.696;2023-04-24T18:02:42;11.20;83.50
17968;DHT22;9109;48.050;11.696;2023-04-24T18:05:44;11.20;82.80
17968;DHT22;9109;48.050;11.696;2023-04-24T18:08:45;11.10;82.70
17968;DHT22;9109;48.050;11.696;2023-04-24T18:11:47;11.10;83.10
17968;DHT22;9109;48.050;11.696;2023-04-24T18:14:49;11.10;82.50
17968;DHT22;9109;48.050;11.696;2023-04-24T18:17:53;11.10;84.90
17968;DHT22;9109;48.050;11.696;2023-04-24T18:20:54;11.10;85.40
17968;DHT22;9109;48.050;11.696;2023-04-24T18:23:56;11.00;83.80
17968;DHT22;9109;48.050;11.696;2023-04-24T18:26:59;10.90;84.00
17968;DHT22;9109;48.050;11.696;2023-04-24T18:30:02;10.80;85.60
17968;DHT22;9109;48.050;11.696;2023-04-24T18:33:05;10.90;86.20
17968;DHT22;9109;48.050;11.696;2023-04-24T18:36:07;10.90;87.20
17968;DHT22;9109;48.050;11.696;2023-04-24T18:39:09;10.90;87.80
17968;DHT22;9109;48.050;11.696;2023-04-24T18:42:11;10.90;87.50
17968;DHT22;9109;48.050;11.696;2023-04-24T18:45:13;10.90;88.70
17968;DHT22;9109;48.050;11.696;2023-04-24T18:48:16;10.80;89.10
17968;DHT22;9109;48.050;11.696;2023-04-24T18:51:18;10.80;90.30
17968;DHT22;9109;48.050;11.696;2023-04-24T18:54:20;10.80;90.60
17968;DHT22;9109;48.050;11.696;2023-04-24T18:57:22;10.70;90.80
17968;DHT22;9109;48.050;11.696;2023-04-24T19:00:24;10.50;91.90
17968;DHT22;9109;48.050;11.696;2023-04-24T19:03:27;10.40;92.90
17968;DHT22;9109;48.050;11.696;2023-04-24T19:06:29;10.30;93.40
17968;DHT22;9109;48.050;11.696;2023-04-24T19:09:32;10.20;94.20
17968;DHT22;9109;48.050;11.696;2023-04-24T19:12:34;10.20;94.60
17968;DHT22;9109;48.050;11.696;2023-04-24T19:15:36;10.10;94.80
17968;DHT22;9109;48.050;11.696;2023-04-24T19:18:41;10.00;94.90
17968;DHT22;9109;48.050;11.696;2023-04-24T19:21:43;9.90;95.60
17968;DHT22;9109;48.050;11.696;2023-04-24T19:24:46;9.80;96.10
17968;DHT22;9109;48.050;11.696;2023-04-24T19:27:48;9.70;96.80
17968;DHT22;9109;48.050;11.696;2023-04-24T19:30:51;9.70;97.40
17968;DHT22;9109;48.050;11.696;2023-04-24T19:33:54;9.70;98.00
17968;DHT22;9109;48.050;11.696;2023-04-24T19:36:56;9.70;98.30
17968;DHT22;9109;48.050;11.696;2023-04-24T19:39:58;9.80;98.50
17968;DHT22;9109;48.050;11.696;2023-04-24T19:43:00;9.70;98.80
17968;DHT22;9109;48.050;11.696;2023-04-24T19:46:02;9.80;99.40
17968;DHT22;9109;48.050;11.696;2023-04-24T19:49:05;9.80;99.70
17968;DHT22;9109;48.050;11.696;2023-04-24T19:52:07;9.80;99.70
17968;DHT22;9109;48.050;11.696;2023-04-24T19:55:09;9.70;99.90
17968;DHT22;9109;48.050;11.696;2023-04-24T19:58:11;9.60;99.90
17968;DHT22;9109;48.050;11.696;2023-04-24T20:01:13;9.50;99.90
17968;DHT22;9109;48.050;11.696;2023-04-24T20:04:16;9.40;99.90
17968;DHT22;9109;48.050;11.696;2023-04-24T20:07:22;9.40;99.90
17968;DHT22;9109;48.050;11.696;2023-04-24T20:10:25;9.40;99.90
17968;DHT22;9109;48.050;11.696;2023-04-24T20:13:27;9.50;99.90
17968;DHT22;9109;48.050;11.696;2023-04-24T20:16:31;9.50;99.90
17968;DHT22;9109;48.050;11.696;2023-04-24T20:19:34;9.50;99.90
17968;DHT22;9109;48.050;11.696;2023-04-24T20:22:36;9.50;99.90
17968;DHT22;9109;48.050;11.696;2023-04-24T20:25:39;9.60;99.90
17968;DHT22;9109;48.050;11.696;2023-04-24T20:28:41;9.50;99.90
17968;DHT22;9109;48.050;11.696;2023-04-24T20:31:42;9.50;99.90
17968;DHT22;9109;48.050;11.696;2023-04-24T20:34:46;9.40;99.90
17968;DHT22;9109;48.050;11.696;2023-04-24T20:37:48;9.40;99.90
17968;DHT22;9109;48.050;11.696;2023-04-24T20:40:50;9.40;99.90
17968;DHT22;9109;48.050;11.696;2023-04-24T20:43:52;9.20;99.90
17968;DHT22;9109;48.050;11.696;2023-04-24T20:46:54;9.20;99.90
17968;DHT22;9109;48.050;11.696;2023-04-24T20:49:58;9.10;99.90
17968;DHT22;9109;48.050;11.696;2023-04-24T20:53:02;9.20;99.90
17968;DHT22;9109;48.050;11.696;2023-04-24T20:56:04;9.10;99.90
17968;DHT22;9109;48.050;11.696;2023-04-24T20:59:08;9.10;99.90
17968;DHT22;9109;48.050;11.696;2023-04-24T21:02:10;9.00;99.90
17968;DHT22;9109;48.050;11.696;2023-04-24T21:05:18;8.90;99.90
17968;DHT22;9109;48.050;11.696;2023-04-24T21:08:30;8.90;99.90
17968;DHT22;9109;48.050;11.696;2023-04-24T21:11:32;9.00;99.90
17968;DHT22;9109;48.050;11.696;2023-04-24T21:14:34;9.00;99.90
17968;DHT22;9109;48.050;11.696;2023-04-24T21:17:36;8.90;99.90
17968;DHT22;9109;48.050;11.696;2023-04-24T21:20:44;9.00;99.90
17968;DHT22;9109;48.050;11.696;2023-04-24T21:23:46;9.00;99.90
17968;DHT22;9109;48.050;11.696;2023-04-24T21:26:48;9.10;99.90
17968;DHT22;9109;48.050;11.696;2023-04-24T21:29:50;9.10;99.90
17968;DHT22;9109;48.050;11.696;2023-04-24T21:32:52;9.00;99.90
17968;DHT22;9109;48.050;11.696;2023-04-24T21:35:56;8.90;99.90
17968;DHT22;9109;48.050;11.696;2023-04-24T21:38:58;8.80;99.90
17968;DHT22;9109;48.050;11.696;2023-04-24T21:42:00;8.80;99.90
17968;DHT22;9109;48.050;11.696;2023-04-24T21:45:03;8.80;99.90
17968;DHT22;9109;48.050;11.696;2023-04-24T21:48:05;8.80;99.90
17968;DHT22;9109;48.050;11.696;2023-04-24T21:51:09;8.80;99.90
17968;DHT22;9109;48.050;11.696;2023-04-24T21:54:14;8.70;99.90
17968;DHT22;9109;48.050;11.696;2023-04-24T21:57:18;8.70;99.90
17968;DHT22;9109;48.050;11.696;2023-04-24T22:04:08;8.60;99.90
17968;DHT22;9109;48.050;11.696;2023-04-24T22:07:29;8.50;99.90
17968;DHT22;9109;48.050;11.696;2023-04-24T22:10:31;8.50;99.90
17968;DHT22;9109;48.050;11.696;2023-04-24T22:13:33;8.50;99.90
17968;DHT22;9109;48.050;11.696;2023-04-24T22:16:35;8.50;99.90
17968;DHT22;9109;48.050;11.696;2023-04-24T22:19:37;8.50;99.90
17968;DHT22;9109;48.050;11.696;2023-04-24T22:22:42;8.50;99.90
17968;DHT22;9109;48.050;11.696;2023-04-24T22:25:44;8.40;99.90
17968;DHT22;9109;48.050;11.696;2023-04-24T22:28:46;8.40;99.90
17968;DHT22;9109;48.050;11.696;2023-04-24T22:31:48;8.20;99.90
17968;DHT22;9109;48.050;11.696;2023-04-24T22:34:50;8.20;99.90
17968;DHT22;9109;48.050;11.696;2023-04-24T22:37:55;8.20;99.90
17968;DHT22;9109;48.050;11.696;2023-04-24T22:40:57;8.20;99.90
17968;DHT22;9109;48.050;11.696;2023-04-24T22:43:59;8.20;99.90
17968;DHT22;9109;48.050;11.696;2023-04-24T22:47:00;8.20;99.90
17968;DHT22;9109;48.050;11.696;2023-04-24T22:50:07;8.20;99.90
17968;DHT22;9109;48.050;11.696;2023-04-24T22:53:11;8.20;99.90
17968;DHT22;9109;48.050;11.696;2023-04-24T22:56:13;8.20;99.90
17968;DHT22;9109;48.050;11.696;2023-04-24T22:59:16;8.20;99.90
